createdAt,value
2018-10-03T00:01:53.676Z,4.50
2018-10-03T00:04:23.462Z,10.57
2018-10-03T00:06:51.390Z,4.17
2018-10-03T00:09:19.394Z,5.80
2018-10-03T00:11:47.438Z,3.90
2018-10-03T00:14:15.410Z,4.90
2018-10-03T00:16:44.072Z,4.00
2018-10-03T00:19:11.985Z,4.13
2018-10-03T00:21:40.000Z,6.67
2018-10-03T00:24:07.858Z,3.83
2018-10-03T00:26:35.661Z,6.27
2018-10-03T00:29:03.390Z,4.53
2018-10-03T00:31:32.425Z,6.13
2018-10-03T00:34:01.806Z,2.40
2018-10-03T00:36:30.200Z,4.20
2018-10-03T00:38:58.670Z,5.53
2018-10-03T00:41:26.840Z,5.60
2018-10-03T00:43:55.126Z,6.40
2018-10-03T00:46:23.867Z,2.87
2018-10-03T00:48:51.861Z,5.17
2018-10-03T00:51:20.090Z,3.53
2018-10-03T00:53:48.011Z,5.53
2018-10-03T00:56:16.233Z,2.73
2018-10-03T00:58:45.272Z,3.23
2018-10-03T01:01:13.246Z,4.07
2018-10-03T01:03:41.614Z,4.47
2018-10-03T01:06:09.587Z,4.97
2018-10-03T01:08:37.598Z,4.63
2018-10-03T01:11:05.821Z,4.20
2018-10-03T01:13:33.505Z,3.10
2018-10-03T01:16:01.819Z,5.67
2018-10-03T01:18:29.793Z,2.30
2018-10-03T01:20:57.842Z,2.73
2018-10-03T01:23:26.061Z,4.87
2018-10-03T01:25:54.135Z,2.80
2018-10-03T01:28:22.290Z,5.43
2018-10-03T01:30:51.134Z,8.33
2018-10-03T01:33:21.857Z,9.43
2018-10-03T01:35:50.096Z,5.90
2018-10-03T01:38:21.683Z,4.03
2018-10-03T01:40:49.955Z,5.13
2018-10-03T01:43:18.615Z,3.07
2018-10-03T01:45:48.649Z,4.67
2018-10-03T01:48:33.850Z,5.50
2018-10-03T01:51:02.735Z,4.07
2018-10-03T01:53:39.925Z,3.37
2018-10-03T01:56:09.118Z,2.67
2018-10-03T01:58:37.329Z,2.60
2018-10-03T02:01:05.500Z,4.03
2018-10-03T02:03:33.822Z,3.90
2018-10-03T02:06:02.153Z,7.03
2018-10-03T02:08:30.456Z,2.67
2018-10-03T02:10:58.844Z,4.80
2018-10-03T02:13:26.795Z,3.83
2018-10-03T02:15:55.661Z,2.47
2018-10-03T02:18:24.005Z,2.87
2018-10-03T02:20:51.831Z,5.57
2018-10-03T02:23:19.737Z,5.90
2018-10-03T02:25:48.335Z,5.13
2018-10-03T02:28:16.316Z,3.30
2018-10-03T02:30:45.652Z,4.47
2018-10-03T02:33:13.865Z,6.13
2018-10-03T02:35:42.557Z,7.63
2018-10-03T02:38:10.649Z,7.67
2018-10-03T02:40:38.870Z,3.80
2018-10-03T02:43:07.060Z,2.70
2018-10-03T02:45:35.293Z,4.00
2018-10-03T02:48:03.551Z,2.47
2018-10-03T02:50:31.843Z,2.97
2018-10-03T02:52:59.954Z,2.50
2018-10-03T02:55:28.254Z,2.47
2018-10-03T02:57:56.347Z,4.93
2018-10-03T03:00:24.369Z,3.97
2018-10-03T03:02:52.455Z,3.20
2018-10-03T03:05:20.610Z,4.07
2018-10-03T03:07:48.878Z,4.90
2018-10-03T03:10:17.775Z,3.13
2018-10-03T03:12:45.762Z,3.00
2018-10-03T03:15:13.794Z,4.17
2018-10-03T03:17:42.309Z,4.13
2018-10-03T03:20:10.689Z,6.30
2018-10-03T03:22:38.984Z,4.60
2018-10-03T03:25:06.774Z,2.73
2018-10-03T03:27:34.899Z,3.63
2018-10-03T03:30:03.034Z,3.73
2018-10-03T03:32:31.228Z,2.70
2018-10-03T03:34:59.417Z,4.70
2018-10-03T03:37:27.168Z,4.90
2018-10-03T03:39:54.899Z,4.33
2018-10-03T03:42:22.645Z,3.43
2018-10-03T03:44:50.330Z,3.93
2018-10-03T03:47:18.182Z,2.23
2018-10-03T03:49:45.976Z,4.37
2018-10-03T03:52:13.747Z,5.50
2018-10-03T03:54:41.542Z,2.43
2018-10-03T03:57:09.232Z,3.47
2018-10-03T03:59:37.074Z,5.40
2018-10-03T04:02:04.983Z,2.20
2018-10-03T04:04:32.649Z,5.03
2018-10-03T04:07:00.298Z,3.03
2018-10-03T04:09:27.956Z,3.10
2018-10-03T04:11:55.785Z,6.93
2018-10-03T04:14:23.802Z,3.40
2018-10-03T04:16:51.537Z,3.60
2018-10-03T04:19:19.207Z,3.67
2018-10-03T04:21:47.342Z,3.87
2018-10-03T04:24:15.345Z,1.97
2018-10-03T04:26:43.461Z,7.40
2018-10-03T04:29:11.549Z,3.20
2018-10-03T04:31:39.608Z,5.03
2018-10-03T04:34:07.389Z,4.20
2018-10-03T04:36:35.361Z,2.90
2018-10-03T04:39:05.472Z,4.03
2018-10-03T04:41:33.618Z,3.10
2018-10-03T04:44:01.724Z,2.90
2018-10-03T04:46:29.922Z,5.17
2018-10-03T04:48:58.414Z,2.83
2018-10-03T04:51:26.679Z,3.10
2018-10-03T04:53:54.606Z,3.60
2018-10-03T04:56:23.150Z,4.87
2018-10-03T04:58:51.215Z,4.40
2018-10-03T05:01:19.298Z,2.90
2018-10-03T05:03:47.224Z,2.20
2018-10-03T05:06:15.409Z,6.20
2018-10-03T05:08:43.412Z,4.00
2018-10-03T05:11:11.255Z,6.03
2018-10-03T05:13:40.001Z,5.63
2018-10-03T05:16:09.736Z,4.30
2018-10-03T05:18:38.437Z,4.83
2018-10-03T05:21:06.842Z,4.60
2018-10-03T05:23:35.480Z,2.57
2018-10-03T05:26:04.403Z,6.10
2018-10-03T05:28:34.190Z,6.67
2018-10-03T05:31:02.001Z,5.30
2018-10-03T05:33:30.733Z,2.63
2018-10-03T05:35:58.506Z,2.87
2018-10-03T05:38:26.646Z,8.43
2018-10-03T05:40:54.644Z,2.67
2018-10-03T05:43:23.433Z,3.37
2018-10-03T05:45:51.898Z,2.43
2018-10-03T05:48:21.722Z,4.90
2018-10-03T05:50:51.392Z,2.93
2018-10-03T05:53:19.936Z,4.10
2018-10-03T05:55:47.691Z,2.20
2018-10-03T05:58:21.263Z,2.90
2018-10-03T06:00:57.933Z,3.33
2018-10-03T06:03:26.200Z,3.20
2018-10-03T06:05:54.850Z,2.00
2018-10-03T06:08:22.814Z,3.00
2018-10-03T06:10:51.066Z,3.13
2018-10-03T06:13:19.435Z,5.57
2018-10-03T06:15:49.098Z,2.70
2018-10-03T06:18:19.131Z,3.13
2018-10-03T06:20:47.497Z,1.77
2018-10-03T06:23:15.895Z,3.53
2018-10-03T06:25:45.613Z,3.50
2018-10-03T06:28:20.080Z,3.60
2018-10-03T06:30:50.564Z,4.53
2018-10-03T06:33:19.537Z,3.07
2018-10-03T06:35:47.875Z,3.37
2018-10-03T06:38:41.209Z,4.83
2018-10-03T06:41:15.067Z,3.63
2018-10-03T06:43:50.850Z,2.30
2018-10-03T06:46:20.621Z,3.10
2018-10-03T06:48:55.397Z,4.93
2018-10-03T06:51:27.195Z,5.53
2018-10-03T06:53:55.908Z,5.23
2018-10-03T06:56:27.655Z,5.07
2018-10-03T06:58:56.500Z,3.60
2018-10-03T07:01:25.034Z,4.50
2018-10-03T07:03:53.834Z,3.37
2018-10-03T07:06:23.135Z,3.13
2018-10-03T07:08:55.998Z,4.60
2018-10-03T07:11:26.074Z,2.40
2018-10-03T07:13:59.113Z,4.30
2018-10-03T07:16:28.995Z,3.40
2018-10-03T07:19:04.479Z,4.33
2018-10-03T07:21:38.349Z,3.23
2018-10-03T07:24:13.791Z,3.97
2018-10-03T07:26:42.637Z,6.33
2018-10-03T07:29:11.780Z,3.77
2018-10-03T07:31:40.758Z,5.00
2018-10-03T07:34:09.068Z,4.23
2018-10-03T07:36:37.560Z,4.43
2018-10-03T07:39:10.121Z,2.90
2018-10-03T07:41:38.600Z,5.63
2018-10-03T07:44:07.234Z,5.00
2018-10-03T07:46:35.925Z,3.33
2018-10-03T07:49:05.236Z,3.30
2018-10-03T07:51:33.372Z,6.80
2018-10-03T07:54:01.965Z,6.97
2018-10-03T07:56:31.402Z,3.47
2018-10-03T07:59:00.092Z,3.77
2018-10-03T08:01:28.177Z,4.07
2018-10-03T08:03:56.676Z,4.10
2018-10-03T08:06:26.707Z,6.13
2018-10-03T08:08:59.674Z,4.67
2018-10-03T08:11:28.178Z,3.90
2018-10-03T08:13:58.093Z,4.30
2018-10-03T08:16:28.617Z,5.07
2018-10-03T08:18:58.163Z,3.90
2018-10-03T08:21:27.389Z,5.37
2018-10-03T08:23:56.514Z,5.07
2018-10-03T08:26:25.352Z,3.60
2018-10-03T08:28:54.081Z,4.83
2018-10-03T08:31:22.699Z,9.10
2018-10-03T08:33:51.464Z,4.40
2018-10-03T08:36:19.366Z,5.90
2018-10-03T08:38:47.868Z,5.10
2018-10-03T08:41:16.763Z,5.33
2018-10-03T08:43:47.771Z,5.40
2018-10-03T08:46:17.814Z,5.23
2018-10-03T08:48:46.208Z,7.63
2018-10-03T08:51:15.628Z,6.13
2018-10-03T08:53:44.770Z,5.13
2018-10-03T08:56:13.265Z,3.73
2018-10-03T08:58:41.493Z,5.17
2018-10-03T09:01:09.830Z,4.57
2018-10-03T09:03:38.585Z,5.27
2018-10-03T09:06:06.944Z,6.03
2018-10-03T09:08:40.562Z,4.53
2018-10-03T09:11:11.223Z,5.67
2018-10-03T09:13:44.660Z,6.17
2018-10-03T09:16:18.278Z,5.13
2018-10-03T09:18:47.204Z,5.03
2018-10-03T09:23:54.349Z,5.10
2018-10-03T09:26:23.023Z,6.07
2018-10-03T09:29:05.043Z,4.67
2018-10-03T09:31:36.000Z,3.27
2018-10-03T09:34:09.763Z,4.63
2018-10-03T09:36:38.413Z,2.63
2018-10-03T09:39:09.119Z,4.97
2018-10-03T09:41:42.985Z,4.17
2018-10-03T09:44:11.846Z,6.30
2018-10-03T09:46:41.233Z,3.97
2018-10-03T09:49:10.413Z,5.57
2018-10-03T09:51:40.194Z,4.13
2018-10-03T09:54:09.091Z,4.27
2018-10-03T09:56:38.849Z,4.10
2018-10-03T09:59:07.868Z,7.90
2018-10-03T10:01:37.774Z,3.00
2018-10-03T10:04:06.423Z,2.67
2018-10-03T10:06:35.860Z,3.70
2018-10-03T10:09:06.126Z,2.70
2018-10-03T10:11:34.899Z,2.87
2018-10-03T10:14:03.095Z,4.17
2018-10-03T10:16:31.568Z,2.10
2018-10-03T10:18:59.992Z,1.80
2018-10-03T10:21:28.560Z,4.93
2018-10-03T10:23:56.786Z,2.30
2018-10-03T10:26:25.345Z,3.30
2018-10-03T10:28:54.808Z,4.13
2018-10-03T10:31:23.315Z,3.83
2018-10-03T10:33:53.117Z,3.27
2018-10-03T10:36:21.180Z,2.80
2018-10-03T10:38:49.660Z,4.10
2018-10-03T10:41:17.554Z,3.50
2018-10-03T10:43:46.239Z,3.83
2018-10-03T10:46:14.925Z,3.43
2018-10-03T10:48:43.608Z,4.93
2018-10-03T10:51:12.096Z,4.00
2018-10-03T10:53:43.775Z,6.00
2018-10-03T10:56:13.138Z,8.47
2018-10-03T10:58:44.941Z,4.90
2018-10-03T11:01:20.341Z,3.40
2018-10-03T11:03:51.146Z,4.23
2018-10-03T11:08:59.935Z,4.17
2018-10-03T11:14:18.692Z,2.93
2018-10-03T11:16:56.057Z,5.63
2018-10-03T11:19:28.648Z,3.50
2018-10-03T11:21:57.844Z,3.70
2018-10-03T11:24:32.103Z,3.93
2018-10-03T11:27:02.161Z,6.17
2018-10-03T11:29:37.340Z,4.13
2018-10-03T11:32:08.350Z,3.90
2018-10-03T11:34:43.814Z,4.00
2018-10-03T11:37:15.744Z,3.90
2018-10-03T11:39:44.912Z,4.23
2018-10-03T11:42:20.658Z,3.00
2018-10-03T11:47:43.638Z,4.80
2018-10-03T11:50:14.017Z,2.87
2018-10-03T11:55:29.445Z,4.47
2018-10-03T12:01:09.394Z,5.67
2018-10-03T12:03:38.201Z,3.73
2018-10-03T12:06:09.489Z,5.47
2018-10-03T12:11:49.627Z,4.20
2018-10-03T12:14:23.247Z,3.87
2018-10-03T12:16:58.184Z,4.13
2018-10-03T12:19:41.572Z,4.20
2018-10-03T12:22:21.892Z,5.20
2018-10-03T12:27:42.629Z,6.23
2018-10-03T12:30:19.647Z,3.20
2018-10-03T12:33:00.652Z,5.00
2018-10-03T12:35:36.424Z,3.47
2018-10-03T12:38:05.261Z,3.40
2018-10-03T12:40:33.866Z,4.23
2018-10-03T12:43:04.531Z,3.50
2018-10-03T12:45:32.658Z,3.67
2018-10-03T12:48:00.743Z,3.20
2018-10-03T12:50:28.673Z,3.17
2018-10-03T12:52:56.572Z,4.60
2018-10-03T12:55:24.514Z,4.30
2018-10-03T12:57:52.621Z,4.30
2018-10-03T13:00:20.618Z,5.40
2018-10-03T13:02:48.641Z,5.50
2018-10-03T13:05:16.989Z,5.70
2018-10-03T13:07:45.090Z,5.87
2018-10-03T13:10:13.400Z,4.13
2018-10-03T13:12:41.534Z,4.87
2018-10-03T13:15:10.233Z,3.47
2018-10-03T13:17:40.469Z,4.40
2018-10-03T13:20:09.042Z,4.27
2018-10-03T13:22:37.264Z,4.47
2018-10-03T13:25:05.438Z,3.80
2018-10-03T13:27:33.550Z,4.07
2018-10-03T13:30:02.542Z,3.30
2018-10-03T13:32:30.791Z,4.20
2018-10-03T13:34:59.081Z,4.47
2018-10-03T13:37:38.563Z,5.67
2018-10-03T13:40:06.851Z,3.07
2018-10-03T13:42:34.872Z,3.40
2018-10-03T13:45:03.004Z,4.93
2018-10-03T13:47:30.804Z,4.47
2018-10-03T13:49:58.771Z,4.70
2018-10-03T13:52:26.696Z,4.40
2018-10-03T13:54:54.773Z,4.70
2018-10-03T13:57:23.693Z,4.00
2018-10-03T13:59:51.454Z,4.77
2018-10-03T14:02:19.814Z,4.63
2018-10-03T14:04:47.857Z,4.37
2018-10-03T14:07:15.871Z,4.53
2018-10-03T14:09:43.695Z,4.73
2018-10-03T14:12:11.891Z,4.23
2018-10-03T14:14:39.801Z,4.60
2018-10-03T14:17:14.456Z,6.47
2018-10-03T14:19:43.638Z,5.07
2018-10-03T14:22:11.585Z,5.37
2018-10-03T14:24:40.513Z,4.93
2018-10-03T14:27:09.505Z,4.87
2018-10-03T14:29:37.779Z,8.00
2018-10-03T14:32:05.756Z,5.20
2018-10-03T14:34:33.548Z,4.67
2018-10-03T14:37:01.456Z,4.47
2018-10-03T14:39:29.190Z,4.47
2018-10-03T14:41:57.266Z,4.90
2018-10-03T14:44:25.266Z,5.87
2018-10-03T14:46:53.522Z,11.67
2018-10-03T14:49:21.882Z,6.50
2018-10-03T14:51:50.269Z,4.80
2018-10-03T14:54:19.232Z,4.57
2018-10-03T14:56:47.390Z,4.27
2018-10-03T14:59:15.558Z,4.87
2018-10-03T15:01:44.677Z,5.13
2018-10-03T15:04:12.413Z,4.27
2018-10-03T15:06:40.440Z,4.33
2018-10-03T15:09:08.962Z,6.37
2018-10-03T15:11:37.101Z,4.80
2018-10-03T15:14:07.091Z,4.80
2018-10-03T15:16:35.006Z,5.20
2018-10-03T15:19:02.714Z,7.03
2018-10-03T15:21:30.530Z,6.13
2018-10-03T15:23:58.308Z,4.60
2018-10-03T15:26:26.215Z,4.80
2018-10-03T15:28:54.186Z,6.40
2018-10-03T15:31:21.930Z,4.93
2018-10-03T15:33:49.669Z,4.70
2018-10-03T15:36:18.151Z,5.07
2018-10-03T15:38:46.918Z,4.80
2018-10-03T15:41:14.832Z,4.60
2018-10-03T15:43:42.648Z,4.50
2018-10-03T15:46:10.434Z,4.90
2018-10-03T15:48:38.378Z,4.70
2018-10-03T15:51:06.358Z,4.90
2018-10-03T15:53:34.304Z,5.77
2018-10-03T15:56:05.017Z,5.57
2018-10-03T15:58:44.458Z,4.33
2018-10-03T16:01:13.997Z,6.23
2018-10-03T16:03:43.621Z,5.47
2018-10-03T16:06:12.126Z,5.30
2018-10-03T16:08:41.054Z,5.40
2018-10-03T16:11:10.684Z,5.27
2018-10-03T16:13:56.912Z,6.13
2018-10-03T16:16:25.444Z,5.80
2018-10-03T16:18:53.218Z,5.63
2018-10-03T16:21:21.301Z,6.30
2018-10-03T16:23:49.675Z,5.63
2018-10-03T16:26:17.908Z,5.77
2018-10-03T16:28:45.553Z,5.40
2018-10-03T16:31:14.437Z,5.60
2018-10-03T16:33:43.055Z,4.90
2018-10-03T16:36:10.746Z,5.70
2018-10-03T16:38:39.329Z,5.47
2018-10-03T16:41:09.195Z,6.60
2018-10-03T16:43:37.959Z,5.97
2018-10-03T16:46:11.050Z,6.07
2018-10-03T16:48:47.063Z,5.33
2018-10-03T16:51:17.921Z,6.07
2018-10-03T16:53:47.316Z,5.30
2018-10-03T16:56:15.460Z,8.93
2018-10-03T16:58:43.772Z,7.27
2018-10-03T17:01:12.134Z,7.30
2018-10-03T17:03:40.674Z,8.40
2018-10-03T17:06:08.752Z,9.30
2018-10-03T17:08:37.426Z,8.10
2018-10-03T17:11:08.272Z,7.60
2018-10-03T17:13:46.658Z,6.53
2018-10-03T17:16:16.094Z,8.50
2018-10-03T17:53:50.162Z,8.77
2018-10-03T17:56:23.236Z,8.40
2018-10-03T18:02:11.543Z,7.80
2018-10-03T18:16:11.469Z,23.80
2018-10-03T18:18:56.947Z,17.53
2018-10-03T18:21:26.334Z,17.97
2018-10-03T18:23:54.698Z,24.73
2018-10-03T18:26:24.406Z,21.63
2018-10-03T18:28:54.053Z,20.10
2018-10-03T18:31:23.831Z,23.37
2018-10-03T18:33:56.596Z,20.53
2018-10-03T18:36:29.381Z,21.70
2018-10-03T18:39:03.722Z,17.30
2018-10-03T18:44:13.004Z,19.23
2018-10-03T18:46:49.231Z,13.70
2018-10-03T18:49:19.697Z,11.70
2018-10-03T18:51:49.740Z,12.10
2018-10-03T18:54:18.659Z,12.63
2018-10-03T18:56:48.427Z,14.50
2018-10-03T18:59:18.323Z,18.03
2018-10-03T19:01:48.335Z,16.27
2018-10-03T19:04:17.742Z,16.13
2018-10-03T19:06:46.322Z,16.63
2018-10-03T19:09:15.021Z,16.50
2018-10-03T19:11:44.094Z,16.07
2018-10-03T19:14:15.116Z,16.90
2018-10-03T19:16:44.714Z,15.50
2018-10-03T19:19:14.551Z,16.30
2018-10-03T19:21:45.065Z,15.30
2018-10-03T19:24:13.298Z,15.27
2018-10-03T19:26:43.703Z,14.50
2018-10-03T19:29:17.174Z,15.30
2018-10-03T19:31:44.959Z,15.80
2018-10-03T19:34:13.139Z,15.97
2018-10-03T19:36:41.040Z,14.53
2018-10-03T19:39:09.402Z,15.43
2018-10-03T19:41:38.277Z,15.57
2018-10-03T19:44:06.370Z,15.50
2018-10-03T19:46:34.125Z,16.70
2018-10-03T19:49:02.152Z,18.40
2018-10-03T19:51:30.307Z,15.60
2018-10-03T19:53:58.180Z,16.67
2018-10-03T19:56:26.115Z,16.93
2018-10-03T19:58:54.733Z,17.97
2018-10-03T20:01:25.294Z,19.70
2018-10-03T20:03:54.043Z,21.23
2018-10-03T20:06:22.753Z,17.60
2018-10-03T20:08:51.315Z,17.83
2018-10-03T20:11:19.496Z,17.27
2018-10-03T20:13:50.748Z,16.87
2018-10-03T20:16:20.013Z,18.70
2018-10-03T20:18:48.294Z,19.03
2018-10-03T20:21:16.268Z,19.50
2018-10-03T20:23:44.150Z,18.23
2018-10-03T20:26:12.270Z,17.10
2018-10-03T20:28:40.251Z,17.87
2018-10-03T20:31:08.429Z,15.03
2018-10-03T20:33:36.389Z,16.47
2018-10-03T20:36:04.137Z,17.10
2018-10-03T20:38:32.300Z,16.80
2018-10-03T20:41:00.610Z,16.53
2018-10-03T20:43:29.066Z,17.50
2018-10-03T20:45:57.353Z,16.00
2018-10-03T20:48:25.332Z,16.07
2018-10-03T20:50:53.301Z,16.30
2018-10-03T20:53:21.369Z,16.27
2018-10-03T20:55:49.474Z,14.70
2018-10-03T20:58:17.994Z,15.47
2018-10-03T21:00:46.526Z,16.10
2018-10-03T21:03:14.707Z,15.83
2018-10-03T21:05:42.811Z,16.47
2018-10-03T21:08:10.881Z,27.67
2018-10-03T21:10:39.575Z,50.60
2018-10-03T21:13:07.393Z,32.60
2018-10-03T21:15:46.081Z,34.10
2018-10-03T21:18:15.783Z,19.30
2018-10-03T21:20:48.409Z,23.40
2018-10-03T21:23:17.407Z,17.40
2018-10-03T21:25:45.451Z,17.87
2018-10-03T21:28:15.489Z,18.37
2018-10-03T21:30:43.639Z,18.47
2018-10-03T21:33:11.902Z,18.33
2018-10-03T21:35:46.410Z,15.30
2018-10-03T21:38:14.226Z,16.67
2018-10-03T21:40:42.863Z,16.80
2018-10-03T21:45:54.929Z,17.63
2018-10-03T21:48:23.719Z,16.10
2018-10-03T21:50:51.474Z,20.23
2018-10-03T21:53:21.291Z,17.43
2018-10-03T21:55:50.993Z,18.50
2018-10-03T21:58:21.741Z,18.70
2018-10-03T22:00:57.845Z,17.10
2018-10-03T22:03:26.055Z,18.63
2018-10-03T22:05:55.370Z,18.03
2018-10-03T22:08:23.378Z,16.67
2018-10-03T22:10:52.041Z,16.77
2018-10-03T22:13:20.529Z,17.50
2018-10-03T22:15:48.902Z,16.67
2018-10-03T22:18:17.665Z,16.37
2018-10-03T22:20:46.083Z,16.30
2018-10-03T22:23:14.437Z,16.43
2018-10-03T22:25:42.453Z,20.17
2018-10-03T22:28:10.433Z,16.17
2018-10-03T22:30:38.518Z,16.80
2018-10-03T22:33:06.738Z,18.10
2018-10-03T22:35:35.576Z,14.87
2018-10-03T22:38:03.844Z,15.40
2018-10-03T22:40:31.967Z,15.33
2018-10-03T22:43:00.044Z,15.93
2018-10-03T22:45:28.001Z,13.33
2018-10-03T22:47:56.302Z,14.73
2018-10-03T22:50:24.440Z,14.50
2018-10-03T22:52:53.130Z,14.60
2018-10-03T22:55:21.356Z,14.20
2018-10-03T22:57:49.315Z,14.30
2018-10-03T23:00:17.486Z,14.60
2018-10-03T23:02:45.870Z,15.67
2018-10-03T23:05:13.866Z,13.20
2018-10-03T23:07:42.305Z,15.00
2018-10-03T23:10:10.147Z,13.50
2018-10-03T23:12:38.334Z,13.33
2018-10-03T23:15:06.891Z,15.03
2018-10-03T23:17:35.227Z,17.27
2018-10-03T23:20:03.888Z,14.27
2018-10-03T23:22:32.781Z,14.40
2018-10-03T23:25:00.930Z,13.33
2018-10-03T23:27:29.298Z,13.50
2018-10-03T23:29:57.394Z,15.57
2018-10-03T23:32:25.662Z,11.87
2018-10-03T23:34:53.940Z,14.27
2018-10-03T23:37:21.744Z,13.23
2018-10-03T23:39:49.582Z,13.93
2018-10-03T23:42:17.643Z,13.57
2018-10-03T23:44:45.668Z,12.70
2018-10-03T23:47:13.779Z,13.87
2018-10-03T23:49:41.921Z,13.90
2018-10-03T23:52:10.206Z,14.97
2018-10-03T23:54:37.949Z,13.93
2018-10-03T23:57:05.630Z,12.57
2018-10-03T23:59:33.308Z,13.87
